Ashland, ME (04737)

3:15 PM EDT on July 25, 2016 (GMT -0400)
Northern Maine Regional At Presque Isle | | Change Station

Elev 479 ft 46.69 °N, 68.04 °W | Updated 19 minutes ago

Partly Cloudy
Partly Cloudy
81 °F
Feels Like 82 °F
N
9
Wind Variable Wind from SE

Today
High -- | Low -- °F
--% Chance of Precip.
Yesterday
High -- | Low -- °F
Precip. -- in
Pressure 29.95 in
Visibility 10.0 miles
Clouds Few 5000 ft
Heat Index 82 °F
Dew Point 64 °F
Humidity 56%
Rainfall 0.00 in
Snow Depth Not available.
5:10 AM 8:17 PM
Waning Gibbous, 63% visible
METAR KPQI 251856Z AUTO 13008KT 10SM FEW050 27/18 A2985 RMK AO2 SLP142 T02720178
Pressure 29.95 in
Visibility 10.0 miles
Clouds Few 5000 ft
Heat Index 82 °F
Dew Point 64 °F
Humidity 56%
Rainfall 0.00 in
Snow Depth Not available.
5:10 AM 8:17 PM
Waning Gibbous, 63% visible
METAR KPQI 251856Z AUTO 13008KT 10SM FEW050 27/18 A2985 RMK AO2 SLP142 T02720178
Record highs are possible for parts of the Northeast Monday and Tuesday, as parts of the central U.S. take a little breather from the worst of summer's dog day heat.

Expansive high pressure in the upper atmosphere will focus on parts of the East and West this week, sending heat indices well into the triple digits from the Mid-Atlantic states into the South.

10-Day Weather Forecast

Almanac

Astronomy

Jul. 25, 2016 Rise Set
Actual Time
Civil Twilight
Nautical Twilight
Astronomical Twilight
Moon
Length of Visible Light
Length of Day
Tomorrow will be .
, % of the Moon is Illuminated

Today's Extremes

State Highs State Lows

Community

WunderPhotos

Upload Photos

1,927,373 photos uploaded!

WunderBlog® & News

Nearby

Air Quality

  Air Quality AQ Index Pollutant
Not available.

Snow Depth

Station Depth Elevation

Earthquake Activity

City Distance Mag. Time & Date
Minimum magnitude displayed is 2.5.

Coastal Water Temperatures

Place Temperature

Stations

Nearby Weather Stations

Station Location Temp. Windchill Dew Point Humidity Wind Precip. Elev Updated Type
                   

Watches & Warnings

There are currently no watches in effect.